Time;durP1;ratioP1;P1;durP2;ratioP2;P2;SDS_P1;SDS_P2;PMS_P1;PMS_P2;Temp;Humidity;BMP_temperature;BMP_pressure;BME280_temperature;BME280_humidity;BME280_pressure;Samples;Min_cycle;Max_cycle;Signal;HPM_P1;HPM_P2
2023/08/31 00:01:40;;;;;;;11.90;10.10;;;20.80;99.90;;;;;;5053922;28;20467;-79
2023/08/31 00:04:14;;;;;;;9.10;8.17;;;20.80;99.90;;;;;;5035748;28;20476;-79
2023/08/31 00:06:41;;;;;;;8.63;7.27;;;20.80;99.90;;;;;;5033763;28;20534;-80
2023/08/31 00:09:10;;;;;;;7.33;6.57;;;20.80;99.90;;;;;;5048972;28;20836;-80
2023/08/31 00:11:37;;;;;;;7.10;6.53;;;20.90;99.90;;;;;;5055086;28;20558;-79
2023/08/31 00:14:05;;;;;;;7.10;6.20;;;20.90;99.90;;;;;;5053416;28;20499;-79
2023/08/31 00:16:33;;;;;;;7.40;6.70;;;20.90;99.90;;;;;;5052900;28;20521;-79
2023/08/31 00:19:00;;;;;;;12.00;10.80;;;20.90;99.90;;;;;;5048617;28;20489;-80
2023/08/31 00:21:27;;;;;;;21.13;18.50;;;20.90;99.90;;;;;;5040911;28;20586;-81
2023/08/31 00:23:54;;;;;;;33.77;29.70;;;20.90;99.90;;;;;;5044514;28;20533;-80
2023/08/31 00:26:22;;;;;;;34.60;30.23;;;20.90;99.90;;;;;;5049733;28;20466;-81
2023/08/31 00:28:50;;;;;;;33.83;30.20;;;20.90;99.90;;;;;;5052380;28;20467;-82
2023/08/31 00:31:17;;;;;;;40.67;35.00;;;21.00;99.90;;;;;;5051999;28;20787;-87
2023/08/31 00:33:45;;;;;;;29.30;26.20;;;21.00;99.90;;;;;;5053234;28;20509;-82
2023/08/31 00:36:12;;;;;;;45.73;37.77;;;21.00;99.90;;;;;;5051582;28;20463;-87
2023/08/31 00:38:39;;;;;;;30.47;25.67;;;21.10;99.90;;;;;;5053249;28;20532;-87
2023/08/31 00:41:07;;;;;;;13.80;12.40;;;21.10;99.90;;;;;;5052987;28;20550;-82
2023/08/31 00:43:37;;;;;;;40.60;34.97;;;21.00;99.90;;;;;;5053310;28;20529;-87
2023/08/31 00:46:05;;;;;;;44.67;39.23;;;21.00;99.90;;;;;;5052746;28;20533;-82
2023/08/31 00:48:32;;;;;;;47.33;42.13;;;21.10;99.90;;;;;;5052618;28;20502;-82
2023/08/31 00:51:00;;;;;;;33.97;30.50;;;21.10;99.90;;;;;;5053404;28;20524;-86
2023/08/31 00:53:28;;;;;;;46.90;41.80;;;21.10;99.90;;;;;;5052083;28;20540;-86
2023/08/31 00:55:55;;;;;;;41.73;37.37;;;21.10;99.90;;;;;;5033629;28;21001;-81
2023/08/31 00:58:22;;;;;;;19.23;17.37;;;21.10;99.90;;;;;;5032121;28;20988;-82
2023/08/31 01:01:01;;;;;;;49.17;44.10;;;21.10;99.90;;;;;;5022444;28;20543;-81
2023/08/31 01:03:36;;;;;;;62.23;51.93;;;21.10;99.90;;;;;;5044607;28;20466;-81
2023/08/31 01:06:13;;;;;;;49.00;43.40;;;21.10;99.90;;;;;;5053073;28;20807;-81
2023/08/31 01:08:47;;;;;;;30.37;26.43;;;21.10;99.90;;;;;;5031109;28;20499;-87
2023/08/31 01:11:21;;;;;;;31.77;27.67;;;21.10;99.90;;;;;;5033318;28;20514;-86
2023/08/31 01:13:56;;;;;;;7.93;7.33;;;21.10;99.90;;;;;;5032375;28;20972;-81
2023/08/31 01:16:26;;;;;;;4.47;4.10;;;21.10;99.90;;;;;;5032731;28;20467;-81
2023/08/31 01:18:55;;;;;;;3.60;3.33;;;21.00;99.90;;;;;;5032071;28;20540;-82
2023/08/31 01:21:29;;;;;;;5.00;4.60;;;20.80;99.90;;;;;;5036773;28;20841;-82
2023/08/31 01:23:58;;;;;;;4.10;3.80;;;20.70;99.90;;;;;;5052159;28;20487;-82
2023/08/31 01:26:26;;;;;;;5.13;4.73;;;20.50;99.90;;;;;;5032913;28;20547;-88
2023/08/31 01:28:55;;;;;;;4.90;4.60;;;20.30;99.90;;;;;;5032103;28;20479;-82
2023/08/31 01:31:22;;;;;;;4.50;4.20;;;20.10;99.90;;;;;;5031752;28;20841;-82
2023/08/31 01:33:51;;;;;;;4.93;4.53;;;20.00;99.90;;;;;;5030370;28;20479;-82
2023/08/31 01:36:23;;;;;;;35.10;30.60;;;19.90;99.90;;;;;;5031731;28;20989;-82
2023/08/31 01:38:54;;;;;;;18.40;16.43;;;19.80;99.90;;;;;;5029729;28;20556;-87
2023/08/31 01:41:24;;;;;;;5.00;4.70;;;19.80;99.90;;;;;;5035080;28;20468;-82
2023/08/31 01:43:52;;;;;;;4.10;3.80;;;19.80;99.90;;;;;;5035876;28;20482;-86
2023/08/31 01:46:20;;;;;;;4.70;4.30;;;19.80;99.90;;;;;;5036439;28;20534;-86
2023/08/31 01:48:47;;;;;;;3.50;3.20;;;19.70;99.90;;;;;;5035531;28;20869;-86
2023/08/31 01:51:14;;;;;;;3.87;3.57;;;19.60;99.90;;;;;;5038859;28;20514;-86
2023/08/31 01:53:44;;;;;;;3.80;3.50;;;19.50;99.90;;;;;;5036507;28;20492;-82
2023/08/31 01:56:11;;;;;;;3.97;3.53;;;19.40;99.90;;;;;;5036779;28;20468;-81
2023/08/31 01:58:39;;;;;;;4.03;3.13;;;19.30;99.90;;;;;;5035226;28;20981;-81
2023/08/31 02:01:06;;;;;;;3.30;3.00;;;19.20;99.90;;;;;;5035802;28;20473;-81
2023/08/31 02:03:33;;;;;;;3.27;3.07;;;19.20;99.90;;;;;;5035883;28;20472;-81
2023/08/31 02:06:00;;;;;;;2.80;2.57;;;19.10;99.90;;;;;;5034883;28;20502;-85
2023/08/31 02:08:28;;;;;;;3.23;3.03;;;19.00;99.90;;;;;;5035681;28;20544;-86
2023/08/31 02:10:55;;;;;;;2.67;2.47;;;18.90;99.90;;;;;;5035625;28;20483;-81
2023/08/31 02:13:22;;;;;;;2.30;2.20;;;18.90;99.90;;;;;;5035986;28;20530;-81
2023/08/31 02:15:53;;;;;;;3.00;2.80;;;18.80;99.90;;;;;;5034935;28;20472;-81
2023/08/31 02:18:23;;;;;;;2.60;2.40;;;18.70;99.90;;;;;;5035251;28;20476;-81
2023/08/31 02:20:53;;;;;;;2.00;1.90;;;18.60;99.90;;;;;;5035109;28;20494;-81
2023/08/31 02:23:20;;;;;;;2.73;2.53;;;18.60;99.90;;;;;;5035446;28;20476;-81
2023/08/31 02:25:48;;;;;;;2.40;2.13;;;18.50;99.90;;;;;;5034884;28;20476;-85
2023/08/31 02:28:15;;;;;;;2.33;2.10;;;18.40;99.90;;;;;;5035558;28;20472;-81
2023/08/31 02:30:45;;;;;;;3.00;2.80;;;18.30;99.90;;;;;;5035122;28;20480;-81
2023/08/31 02:33:13;;;;;;;2.60;2.40;;;18.20;99.90;;;;;;5035318;28;21007;-81
2023/08/31 02:35:40;;;;;;;3.20;3.00;;;18.20;99.90;;;;;;5034736;28;20555;-86
2023/08/31 02:38:07;;;;;;;2.80;2.60;;;18.10;99.90;;;;;;5035006;28;20476;-86
2023/08/31 02:40:36;;;;;;;2.90;2.70;;;18.10;99.90;;;;;;5034885;28;20476;-81
2023/08/31 02:43:05;;;;;;;2.90;2.70;;;18.10;99.90;;;;;;5035331;28;20910;-81
2023/08/31 02:45:33;;;;;;;3.07;2.50;;;18.00;99.90;;;;;;5035206;28;20988;-82
2023/08/31 02:48:00;;;;;;;2.20;2.10;;;18.00;99.90;;;;;;5034830;28;20452;-85
2023/08/31 02:50:29;;;;;;;3.00;2.80;;;18.00;99.90;;;;;;5035238;28;20472;-85
2023/08/31 02:52:55;;;;;;;3.07;2.87;;;17.90;99.90;;;;;;5033469;28;20501;-85
2023/08/31 02:55:23;;;;;;;2.30;2.20;;;17.90;99.90;;;;;;5033239;28;20473;-85
2023/08/31 02:57:50;;;;;;;2.90;2.70;;;17.90;99.90;;;;;;5034635;28;20781;-86
2023/08/31 03:00:21;;;;;;;3.00;2.10;;;17.80;99.90;;;;;;5035402;28;20468;-85
2023/08/31 03:02:48;;;;;;;2.97;2.77;;;17.80;99.90;;;;;;5038330;28;20488;-86
2023/08/31 03:05:16;;;;;;;3.17;2.90;;;17.80;99.90;;;;;;5034970;28;20476;-86
2023/08/31 03:07:44;;;;;;;6.23;3.60;;;17.80;99.90;;;;;;5034250;28;20471;-81
2023/08/31 03:10:11;;;;;;;3.60;3.30;;;17.80;99.90;;;;;;5034788;28;20963;-81
2023/08/31 03:12:39;;;;;;;4.10;3.80;;;17.80;99.90;;;;;;5034544;28;20461;-80
2023/08/31 03:15:08;;;;;;;3.67;3.40;;;17.70;99.90;;;;;;5034602;28;20472;-86
2023/08/31 03:17:35;;;;;;;3.43;3.17;;;17.70;99.90;;;;;;5034996;28;20496;-86
2023/08/31 03:20:06;;;;;;;3.30;3.10;;;17.60;99.90;;;;;;5035034;28;20468;-86
2023/08/31 03:22:33;;;;;;;4.30;3.90;;;17.60;99.90;;;;;;5035062;28;20467;-86
2023/08/31 03:25:02;;;;;;;3.77;3.47;;;17.60;99.90;;;;;;5035286;28;20480;-86
2023/08/31 03:27:32;;;;;;;4.10;3.33;;;17.60;99.90;;;;;;5035311;28;20534;-86
2023/08/31 03:29:59;;;;;;;3.20;3.00;;;17.60;99.90;;;;;;5035655;28;20530;-86
2023/08/31 03:32:26;;;;;;;3.47;3.17;;;17.60;99.90;;;;;;5035828;28;20985;-86
2023/08/31 03:34:53;;;;;;;4.60;3.40;;;17.50;99.90;;;;;;5034679;28;20456;-86
2023/08/31 03:37:21;;;;;;;3.10;2.80;;;17.50;99.90;;;;;;5034584;28;20468;-86
2023/08/31 03:39:48;;;;;;;3.73;3.43;;;17.50;99.90;;;;;;5034338;28;20572;-85
2023/08/31 03:42:17;;;;;;;3.00;2.80;;;17.50;99.90;;;;;;5033007;28;20464;-82
2023/08/31 03:44:49;;;;;;;3.07;2.80;;;17.50;99.90;;;;;;5033605;28;20484;-80
2023/08/31 03:47:14;;;;;;;3.00;2.80;;;17.50;99.90;;;;;;5034021;28;20496;-81
2023/08/31 03:49:44;;;;;;;2.70;2.50;;;17.50;99.90;;;;;;5033881;28;20538;-81
2023/08/31 03:52:11;;;;;;;3.33;3.03;;;17.50;99.90;;;;;;5033838;28;20969;-82
2023/08/31 03:54:37;;;;;;;2.90;2.70;;;17.50;99.90;;;;;;5013705;28;20485;-82
2023/08/31 03:57:05;;;;;;;3.07;2.77;;;17.50;99.90;;;;;;5026726;28;20502;-82
2023/08/31 03:59:34;;;;;;;3.50;3.20;;;17.50;99.90;;;;;;5034118;28;20472;-86
2023/08/31 04:02:01;;;;;;;4.17;2.80;;;17.50;99.90;;;;;;5032925;28;20464;-81
2023/08/31 04:04:28;;;;;;;3.73;3.43;;;17.40;99.90;;;;;;5034208;28;20806;-81
2023/08/31 04:06:56;;;;;;;4.17;3.87;;;17.40;99.90;;;;;;5033223;28;20504;-81
2023/08/31 04:09:23;;;;;;;4.10;3.70;;;17.40;99.90;;;;;;5034657;28;20988;-86
2023/08/31 04:11:50;;;;;;;5.30;4.10;;;17.40;99.90;;;;;;5034098;28;20473;-86
2023/08/31 04:14:18;;;;;;;5.47;4.87;;;17.40;99.90;;;;;;5019269;28;21028;-82
2023/08/31 04:16:49;;;;;;;5.73;4.77;;;17.40;99.90;;;;;;5012992;28;20975;-82
2023/08/31 04:19:16;;;;;;;5.27;4.80;;;17.40;99.90;;;;;;5013605;28;20508;-81
2023/08/31 04:21:43;;;;;;;4.87;4.47;;;17.40;99.90;;;;;;5013914;28;20469;-86
2023/08/31 04:24:10;;;;;;;6.33;5.80;;;17.40;99.90;;;;;;5015018;28;20477;-86
2023/08/31 04:26:37;;;;;;;6.63;6.13;;;17.30;99.90;;;;;;5014058;28;20465;-80
2023/08/31 04:29:05;;;;;;;7.27;6.27;;;17.30;99.90;;;;;;5014036;28;20457;-86
2023/08/31 04:31:32;;;;;;;6.70;6.10;;;17.30;99.90;;;;;;5015208;28;20545;-86
2023/08/31 04:34:01;;;;;;;5.70;5.10;;;17.30;99.90;;;;;;5015767;28;20477;-82
2023/08/31 04:36:28;;;;;;;6.33;5.73;;;17.30;99.90;;;;;;5007374;28;20497;-87
2023/08/31 04:38:55;;;;;;;6.47;5.83;;;17.30;99.90;;;;;;5013294;28;20538;-86
2023/08/31 04:41:25;;;;;;;10.07;6.37;;;17.30;99.90;;;;;;5014164;28;20545;-85
2023/08/31 04:43:53;;;;;;;7.47;6.70;;;17.30;99.90;;;;;;5012755;28;20879;-82
2023/08/31 04:46:20;;;;;;;10.70;7.33;;;17.30;99.90;;;;;;5013547;28;20465;-81
2023/08/31 04:48:48;;;;;;;11.90;7.93;;;17.30;99.90;;;;;;5015347;28;20515;-84
2023/08/31 04:51:33;;;;;;;11.23;7.87;;;17.30;99.90;;;;;;5016353;28;20488;-84
2023/08/31 04:54:07;;;;;;;8.63;7.90;;;17.30;99.90;;;;;;5014887;28;20465;-86
2023/08/31 04:56:35;;;;;;;10.50;8.40;;;17.30;99.90;;;;;;5013658;28;20475;-81
2023/08/31 04:59:03;;;;;;;10.00;8.07;;;17.20;99.90;;;;;;5013295;28;20473;-85
2023/08/31 05:01:31;;;;;;;11.93;9.63;;;17.30;99.90;;;;;;5013180;28;20931;-80
2023/08/31 05:03:58;;;;;;;10.53;9.50;;;17.20;99.90;;;;;;5017800;28;20489;-80
2023/08/31 05:06:26;;;;;;;8.60;7.87;;;17.20;99.90;;;;;;5013882;28;20465;-85
2023/08/31 05:08:54;;;;;;;10.17;9.17;;;17.20;99.90;;;;;;5013068;28;20508;-85
2023/08/31 05:11:21;;;;;;;9.50;8.03;;;17.20;99.90;;;;;;5016842;28;20469;-86
2023/08/31 05:13:51;;;;;;;9.40;7.80;;;17.20;99.90;;;;;;5018743;28;20469;-85
2023/08/31 05:16:18;;;;;;;7.87;7.27;;;17.20;99.90;;;;;;5031539;28;20467;-86
2023/08/31 05:18:45;;;;;;;7.70;7.03;;;17.20;99.90;;;;;;5040042;28;20962;-82
2023/08/31 05:21:12;;;;;;;8.03;7.33;;;17.20;99.90;;;;;;5035638;28;20444;-86
2023/08/31 05:23:39;;;;;;;9.67;8.87;;;17.30;99.90;;;;;;5036936;28;20552;-81
2023/08/31 05:26:11;;;;;;;7.37;6.70;;;17.30;99.90;;;;;;5036121;28;20503;-81
2023/08/31 05:28:38;;;;;;;9.03;8.13;;;17.30;99.90;;;;;;5037676;28;20526;-86
2023/08/31 05:31:08;;;;;;;8.00;7.27;;;17.30;99.90;;;;;;5026893;28;20970;-82
2023/08/31 05:33:46;;;;;;;8.77;7.87;;;17.30;99.90;;;;;;5036814;28;20551;-81
2023/08/31 05:36:13;;;;;;;8.90;8.07;;;17.30;99.90;;;;;;5036236;28;20462;-86
2023/08/31 05:38:40;;;;;;;10.70;9.07;;;17.40;99.90;;;;;;5039684;28;20476;-86
2023/08/31 05:41:10;;;;;;;7.37;6.70;;;17.30;99.90;;;;;;5036458;28;20471;-81
2023/08/31 05:43:39;;;;;;;7.80;7.10;;;17.30;99.90;;;;;;5036984;28;20472;-81
2023/08/31 05:46:09;;;;;;;8.50;7.73;;;17.30;99.90;;;;;;5027529;28;20969;-86
2023/08/31 05:48:43;;;;;;;8.33;7.53;;;17.30;99.90;;;;;;5030432;28;20472;-81
2023/08/31 05:51:10;;;;;;;8.33;7.63;;;17.30;99.90;;;;;;5028890;28;20472;-86
2023/08/31 05:53:37;;;;;;;8.57;7.60;;;17.40;99.90;;;;;;5039090;28;20499;-86
2023/08/31 05:56:06;;;;;;;8.97;8.10;;;17.40;99.90;;;;;;5035810;28;20526;-81
2023/08/31 05:58:37;;;;;;;8.00;7.30;;;17.40;99.90;;;;;;5035848;28;20456;-81
2023/08/31 06:01:05;;;;;;;10.20;8.37;;;17.30;99.90;;;;;;5036169;28;20472;-86
2023/08/31 06:03:34;;;;;;;11.03;7.83;;;17.40;99.90;;;;;;5037752;28;20464;-87
2023/08/31 06:06:13;;;;;;;8.93;8.00;;;17.40;99.90;;;;;;5038040;28;20479;-85
2023/08/31 06:08:40;;;;;;;9.47;7.50;;;17.40;99.90;;;;;;5037516;28;20494;-81
2023/08/31 06:11:07;;;;;;;7.53;6.80;;;17.40;99.90;;;;;;5035239;28;20471;-80
2023/08/31 06:13:35;;;;;;;10.20;7.57;;;17.40;99.90;;;;;;5036958;28;20464;-86
2023/08/31 06:19:38;;;;;;;7.80;7.07;;;17.50;99.90;;;;;;4955678;29;20456;-82
2023/08/31 06:22:05;;;;;;;8.40;7.60;;;17.50;99.90;;;;;;5016806;28;20537;-81
2023/08/31 06:24:33;;;;;;;9.13;8.40;;;17.50;99.90;;;;;;5035077;28;20882;-81
2023/08/31 06:27:00;;;;;;;8.23;7.40;;;17.50;99.90;;;;;;5020656;28;20489;-81
2023/08/31 06:29:29;;;;;;;8.97;8.07;;;17.50;99.90;;;;;;5023048;28;20958;-81
2023/08/31 06:31:59;;;;;;;9.60;8.70;;;17.50;99.90;;;;;;5035303;28;20500;-81
2023/08/31 06:34:28;;;;;;;8.87;8.10;;;17.50;99.90;;;;;;5035680;28;20547;-81
2023/08/31 06:37:12;;;;;;;9.17;8.37;;;17.60;99.90;;;;;;5034405;28;20452;-80
2023/08/31 06:39:59;;;;;;;8.43;7.73;;;17.60;99.90;;;;;;5005497;28;20790;-81
2023/08/31 06:42:32;;;;;;;9.00;8.00;;;17.60;99.90;;;;;;5004016;28;20472;-86
2023/08/31 06:45:02;;;;;;;9.07;8.27;;;17.50;99.90;;;;;;5130706;23;20490;-86
2023/08/31 06:47:44;;;;;;;8.37;7.30;;;17.60;99.90;;;;;;4985962;28;20462;-81
2023/08/31 06:50:11;;;;;;;8.20;7.50;;;17.60;99.90;;;;;;5008142;28;21019;-80
2023/08/31 06:52:40;;;;;;;9.27;8.33;;;17.60;99.90;;;;;;4993588;28;20485;-86
2023/08/31 06:55:10;;;;;;;8.83;7.97;;;17.60;99.90;;;;;;5002136;28;20477;-86
2023/08/31 06:58:22;;;;;;;7.67;6.90;;;17.70;99.90;;;;;;4997096;28;20478;-86
2023/08/31 07:01:07;;;;;;;8.33;7.47;;;17.70;99.90;;;;;;4997009;28;20476;-86
2023/08/31 07:03:54;;;;;;;8.30;7.50;;;17.70;99.90;;;;;;4985247;28;20513;-80
2023/08/31 07:06:21;;;;;;;8.97;7.50;;;17.70;99.90;;;;;;4994346;28;20498;-80
2023/08/31 07:08:49;;;;;;;7.70;6.90;;;17.70;99.90;;;;;;4994750;28;20466;-80
2023/08/31 07:11:27;;;;;;;7.17;6.60;;;17.80;99.90;;;;;;4995341;28;20476;-80
2023/08/31 07:13:59;;;;;;;9.50;8.57;;;17.80;99.90;;;;;;5005724;28;20494;-85
2023/08/31 07:16:27;;;;;;;6.60;6.13;;;17.70;99.90;;;;;;5016932;28;20839;-86
2023/08/31 07:18:54;;;;;;;8.00;7.30;;;17.80;99.90;;;;;;5016542;28;20459;-80
2023/08/31 07:21:22;;;;;;;7.83;7.13;;;17.80;99.90;;;;;;5016841;28;20468;-86
2023/08/31 07:23:50;;;;;;;7.17;6.43;;;17.80;99.90;;;;;;5013726;28;20472;-80
2023/08/31 07:26:23;;;;;;;6.30;5.70;;;17.90;99.90;;;;;;5016002;28;20799;-86
2023/08/31 07:29:10;;;;;;;8.93;5.73;;;17.90;99.90;;;;;;5002842;28;20465;-86
2023/08/31 07:31:48;;;;;;;6.50;5.90;;;17.90;99.90;;;;;;5006495;28;20473;-86
2023/08/31 07:34:15;;;;;;;6.30;5.80;;;17.90;99.90;;;;;;5002536;28;20474;-81
2023/08/31 07:37:00;;;;;;;6.43;5.93;;;17.90;99.90;;;;;;5000258;28;20465;-81
2023/08/31 07:39:27;;;;;;;6.33;5.70;;;18.00;99.90;;;;;;5015845;28;20457;-87
2023/08/31 07:44:57;;;;;;;9.63;6.17;;;18.10;99.90;;;;;;4980019;28;20480;-87
2023/08/31 07:51:07;;;;;;;15.90;6.70;;;18.10;99.90;;;;;;4990143;28;20461;-86
2023/08/31 07:53:34;;;;;;;11.40;5.80;;;18.10;99.90;;;;;;4981906;28;20474;-81
2023/08/31 07:56:23;;;;;;;14.97;5.93;;;18.10;99.90;;;;;;4978260;28;20483;-86
2023/08/31 07:58:50;;;;;;;14.53;4.97;;;18.10;99.90;;;;;;5007272;28;20483;-81
2023/08/31 08:01:17;;;;;;;4.77;4.37;;;18.20;99.90;;;;;;5017022;28;20476;-81
2023/08/31 08:03:46;;;;;;;13.97;5.73;;;18.20;99.90;;;;;;5015885;28;20488;-86
2023/08/31 08:06:44;;;;;;;13.13;4.97;;;18.20;99.90;;;;;;5019200;28;20473;-86
2023/08/31 08:09:43;;;;;;;;;;;;;;;;;;;;;
2023/08/31 08:12:58;;;;;;;28.30;9.23;;;18.40;99.90;;;;;;4994676;28;20466;-86
2023/08/31 08:15:46;;;;;;;19.07;6.90;;;18.40;99.90;;;;;;4966639;28;20551;-86
2023/08/31 08:18:25;;;;;;;14.97;6.50;;;18.40;99.90;;;;;;5005711;28;20465;-81
2023/08/31 08:23:50;;;;;;;5.13;4.20;;;18.50;99.90;;;;;;5011027;28;20465;-80
2023/08/31 08:26:17;;;;;;;9.30;3.97;;;18.50;99.90;;;;;;4987559;28;20548;-85
2023/08/31 08:28:52;;;;;;;4.20;3.80;;;18.60;99.90;;;;;;5016147;28;21021;-86
2023/08/31 08:31:19;;;;;;;7.63;4.60;;;18.70;99.90;;;;;;4993005;28;20473;-80
2023/08/31 08:33:46;;;;;;;35.80;9.80;;;18.80;99.90;;;;;;5001524;28;20541;-80
2023/08/31 08:36:17;;;;;;;11.57;4.43;;;18.90;99.90;;;;;;5012775;28;20511;-79
2023/08/31 08:38:49;;;;;;;6.03;4.30;;;19.00;99.90;;;;;;5014609;28;20551;-80
2023/08/31 08:41:24;;;;;;;4.40;3.20;;;19.00;99.90;;;;;;5001947;28;20477;-81
2023/08/31 08:47:08;;;;;;;12.80;4.80;;;19.10;99.90;;;;;;4966906;28;20467;-85
2023/08/31 08:49:36;;;;;;;28.47;5.90;;;19.10;99.90;;;;;;5016883;28;20472;-81
2023/08/31 08:52:08;;;;;;;36.57;9.10;;;19.10;99.90;;;;;;5017257;28;20472;-80
2023/08/31 08:54:36;;;;;;;35.30;9.17;;;19.10;99.90;;;;;;5018002;28;20465;-80
2023/08/31 08:57:06;;;;;;;10.83;3.17;;;19.10;99.90;;;;;;5020526;28;20464;-80
2023/08/31 08:59:33;;;;;;;35.63;8.17;;;19.10;99.90;;;;;;4997060;28;20477;-81
2023/08/31 09:02:01;;;;;;;26.67;6.27;;;19.10;99.90;;;;;;4976676;28;20474;-80
2023/08/31 09:04:39;;;;;;;22.53;5.13;;;19.10;99.90;;;;;;5013298;28;20533;-86
2023/08/31 09:07:10;;;;;;;32.27;7.50;;;19.10;99.90;;;;;;4994896;28;20927;-86
2023/08/31 09:09:57;;;;;;;40.47;10.03;;;19.10;99.90;;;;;;4996405;28;20482;-86
2023/08/31 09:12:38;;;;;;;12.80;5.30;;;19.10;99.90;;;;;;4970708;28;20926;-85
2023/08/31 09:15:27;;;;;;;22.13;6.60;;;19.10;99.90;;;;;;5004401;28;20468;-84
2023/08/31 09:17:54;;;;;;;14.73;6.10;;;19.10;99.90;;;;;;5015906;28;20556;-80
2023/08/31 09:20:23;;;;;;;27.97;4.87;;;19.20;99.90;;;;;;5016383;28;20484;-81
2023/08/31 09:22:52;;;;;;;21.43;5.63;;;19.30;99.90;;;;;;5016853;28;20473;-81
2023/08/31 09:25:20;;;;;;;8.90;2.73;;;19.30;99.90;;;;;;5016928;28;20457;-85
2023/08/31 09:27:47;;;;;;;2.87;2.23;;;19.50;99.90;;;;;;5017461;28;20469;-84
2023/08/31 09:30:14;;;;;;;5.03;3.30;;;19.50;99.90;;;;;;5015410;28;20477;-85
2023/08/31 09:32:44;;;;;;;36.30;8.27;;;19.60;99.90;;;;;;5016173;28;20959;-82
2023/08/31 09:38:20;;;;;;;15.87;4.77;;;19.70;99.90;;;;;;5015068;28;20998;-80
2023/08/31 09:41:06;;;;;;;10.00;3.57;;;19.70;99.90;;;;;;4989535;28;20551;-81
2023/08/31 09:46:46;;;;;;;3.40;2.60;;;19.70;99.90;;;;;;5001646;28;20472;-81
2023/08/31 09:49:18;;;;;;;4.50;2.77;;;19.70;99.90;;;;;;5015361;28;20958;-81
2023/08/31 09:51:47;;;;;;;2.80;2.60;;;19.70;99.90;;;;;;4991778;28;20492;-86
2023/08/31 09:54:37;;;;;;;2.83;2.50;;;19.80;99.90;;;;;;5012673;28;20978;-86
2023/08/31 09:57:07;;;;;;;3.83;2.43;;;19.90;99.90;;;;;;5015360;28;20469;-85
2023/08/31 09:59:35;;;;;;;2.60;2.40;;;19.90;99.90;;;;;;5003615;28;20541;-86
2023/08/31 10:02:03;;;;;;;3.77;2.93;;;19.90;99.90;;;;;;5015567;28;20836;-81
2023/08/31 10:04:33;;;;;;;6.07;2.43;;;20.00;99.90;;;;;;4993234;28;20470;-81
2023/08/31 10:07:00;;;;;;;2.93;2.40;;;20.00;99.90;;;;;;5012063;28;20473;-81
2023/08/31 10:09:32;;;;;;;2.53;2.30;;;20.10;99.90;;;;;;5016201;28;20523;-82
2023/08/31 10:12:02;;;;;;;3.70;2.10;;;20.10;99.90;;;;;;4988924;28;20545;-86
2023/08/31 10:14:29;;;;;;;4.07;2.33;;;20.10;99.90;;;;;;5015949;28;20492;-81
2023/08/31 10:17:00;;;;;;;2.40;2.10;;;20.10;99.90;;;;;;5016163;28;20880;-87
2023/08/31 10:19:27;;;;;;;3.00;2.03;;;20.10;99.90;;;;;;4989568;28;20461;-87
2023/08/31 10:22:00;;;;;;;3.27;2.07;;;20.10;99.90;;;;;;5017024;28;20861;-85
2023/08/31 10:25:00;;;;;;;6.20;2.23;;;20.10;99.90;;;;;;5015685;28;20501;-87
2023/08/31 10:27:29;;;;;;;2.60;2.40;;;20.20;99.90;;;;;;5016099;28;20469;-86
2023/08/31 10:29:56;;;;;;;3.00;1.93;;;20.20;99.90;;;;;;5016932;28;20469;-86
2023/08/31 10:32:23;;;;;;;5.20;1.93;;;20.20;99.90;;;;;;5015735;28;20802;-87
2023/08/31 10:35:09;;;;;;;13.93;3.63;;;20.20;99.90;;;;;;5016285;28;20473;-86
2023/08/31 10:37:35;;;;;;;5.63;3.00;;;20.10;99.90;;;;;;5015905;28;21216;-87
2023/08/31 10:40:45;;;;;;;7.80;3.23;;;19.90;99.90;;;;;;4999482;28;20474;-87
2023/08/31 10:43:18;;;;;;;4.50;1.50;;;19.70;99.90;;;;;;4973824;28;20474;-87
2023/08/31 10:45:51;;;;;;;2.53;1.73;;;19.50;99.90;;;;;;5015767;28;20465;-86
2023/08/31 10:48:28;;;;;;;2.37;1.73;;;19.20;99.90;;;;;;5015203;28;20519;-86
2023/08/31 10:51:17;;;;;;;5.60;2.70;;;19.10;99.90;;;;;;5013904;28;20499;-85
2023/08/31 10:53:44;;;;;;;3.40;2.40;;;18.90;99.90;;;;;;5015548;28;20465;-86
2023/08/31 10:56:11;;;;;;;2.63;2.10;;;18.80;99.90;;;;;;5016435;28;20818;-86
2023/08/31 10:58:39;;;;;;;2.47;2.20;;;18.70;99.90;;;;;;5015193;28;20883;-86
2023/08/31 11:01:06;;;;;;;2.93;2.47;;;18.60;99.90;;;;;;5014924;28;20814;-86
2023/08/31 11:04:00;;;;;;;2.33;2.03;;;18.60;99.90;;;;;;5015167;28;20543;-85
2023/08/31 11:06:31;;;;;;;2.93;2.67;;;18.50;99.90;;;;;;5015622;28;20488;-86
2023/08/31 11:08:58;;;;;;;3.10;2.60;;;18.50;99.90;;;;;;5016112;28;20465;-86
2023/08/31 11:11:28;;;;;;;3.40;2.40;;;18.50;99.90;;;;;;5014962;28;20458;-87
2023/08/31 11:13:59;;;;;;;4.10;2.50;;;18.40;99.90;;;;;;5014309;28;20989;-82
2023/08/31 11:16:26;;;;;;;6.13;3.63;;;18.50;99.90;;;;;;5005614;28;20476;-81
2023/08/31 11:18:54;;;;;;;6.90;3.07;;;18.50;99.90;;;;;;5014972;28;20954;-87
2023/08/31 11:21:25;;;;;;;6.33;3.80;;;18.50;99.90;;;;;;4997199;28;20482;-87
2023/08/31 11:23:57;;;;;;;4.33;3.20;;;18.60;99.90;;;;;;5007211;28;20903;-85
2023/08/31 11:26:25;;;;;;;7.40;4.10;;;18.60;99.90;;;;;;5015025;28;20581;-86
2023/08/31 11:28:52;;;;;;;3.20;2.90;;;18.70;99.90;;;;;;5014336;28;20461;-86
2023/08/31 11:31:25;;;;;;;6.87;3.87;;;18.80;99.90;;;;;;5014581;28;20806;-86
2023/08/31 11:33:53;;;;;;;4.13;2.87;;;18.90;99.90;;;;;;5013833;28;20508;-86
2023/08/31 11:36:20;;;;;;;3.33;2.87;;;18.90;99.90;;;;;;5014297;28;20473;-86
2023/08/31 11:38:55;;;;;;;4.70;3.10;;;19.00;99.90;;;;;;5013509;28;20473;-81
2023/08/31 11:41:22;;;;;;;5.60;2.90;;;19.00;99.90;;;;;;5012913;28;21057;-81
2023/08/31 11:44:12;;;;;;;5.17;3.53;;;19.00;99.90;;;;;;4972115;28;20473;-81
2023/08/31 11:46:44;;;;;;;3.33;2.97;;;19.00;99.90;;;;;;4982492;28;20466;-86
2023/08/31 11:49:13;;;;;;;3.33;2.70;;;18.90;99.90;;;;;;4994293;28;20978;-86
2023/08/31 11:51:43;;;;;;;3.70;3.40;;;18.90;99.90;;;;;;4994621;28;20466;-80
2023/08/31 11:54:19;;;;;;;3.30;3.00;;;18.80;99.90;;;;;;4962119;28;20472;-80
2023/08/31 11:56:48;;;;;;;5.23;3.37;;;18.80;99.90;;;;;;4990693;28;20469;-80
2023/08/31 11:59:18;;;;;;;3.97;2.90;;;18.70;99.90;;;;;;4993595;28;20549;-81
2023/08/31 12:01:48;;;;;;;3.60;3.30;;;18.70;99.90;;;;;;4994142;28;20816;-81
2023/08/31 12:04:16;;;;;;;3.50;3.20;;;18.70;99.90;;;;;;4993401;28;20458;-81
2023/08/31 12:06:47;;;;;;;3.90;3.60;;;18.60;99.90;;;;;;4994216;28;21030;-81
2023/08/31 12:09:14;;;;;;;4.50;3.90;;;18.60;99.90;;;;;;4993567;28;20520;-87
2023/08/31 12:11:50;;;;;;;4.40;3.60;;;18.60;99.90;;;;;;4993812;28;20466;-81
2023/08/31 12:14:21;;;;;;;3.57;3.10;;;18.60;99.90;;;;;;4980394;28;20498;-82
2023/08/31 12:16:49;;;;;;;6.07;3.50;;;18.70;99.90;;;;;;4981096;28;20474;-81
2023/08/31 12:19:16;;;;;;;4.07;3.70;;;18.70;99.90;;;;;;4994027;28;20843;-87
2023/08/31 12:21:45;;;;;;;4.13;3.23;;;18.70;99.90;;;;;;4994610;28;20505;-87
2023/08/31 12:24:12;;;;;;;4.60;3.57;;;18.90;99.90;;;;;;4963459;28;20529;-88
2023/08/31 12:26:40;;;;;;;3.70;3.40;;;18.90;99.90;;;;;;4988018;28;20465;-82
2023/08/31 12:29:07;;;;;;;5.07;3.40;;;18.90;99.90;;;;;;4983836;28;20484;-82
2023/08/31 12:31:34;;;;;;;4.27;3.97;;;18.90;99.90;;;;;;4978165;28;20481;-81
2023/08/31 12:34:10;;;;;;;5.10;3.07;;;19.00;99.90;;;;;;4994058;28;21040;-82
2023/08/31 12:36:47;;;;;;;3.80;3.50;;;19.00;99.90;;;;;;4972296;28;20462;-82
2023/08/31 12:39:18;;;;;;;3.60;3.30;;;19.10;99.90;;;;;;4989722;28;20540;-82
2023/08/31 12:41:46;;;;;;;5.27;4.03;;;19.10;99.90;;;;;;4993733;28;20532;-82
2023/08/31 12:44:13;;;;;;;3.53;3.27;;;19.10;99.90;;;;;;4985405;28;20547;-87
2023/08/31 12:46:42;;;;;;;4.77;4.33;;;19.20;99.90;;;;;;4984988;28;20968;-87
2023/08/31 12:49:13;;;;;;;6.10;5.50;;;19.20;99.90;;;;;;5013098;28;20527;-88
2023/08/31 12:51:40;;;;;;;6.77;5.77;;;19.20;99.90;;;;;;5006469;28;20461;-86
2023/08/31 12:54:17;;;;;;;4.03;3.60;;;19.20;99.90;;;;;;4992097;28;20461;-81
2023/08/31 12:56:44;;;;;;;3.27;3.03;;;19.20;99.90;;;;;;4983827;28;20850;-82
2023/08/31 12:59:41;;;;;;;3.30;2.83;;;19.20;99.90;;;;;;5009240;28;20466;-82
2023/08/31 13:02:15;;;;;;;2.87;2.60;;;19.30;99.90;;;;;;5012524;28;20465;-87
2023/08/31 13:04:44;;;;;;;3.07;2.87;;;19.30;99.90;;;;;;4979277;28;20963;-85
2023/08/31 13:07:21;;;;;;;3.90;2.80;;;19.30;99.90;;;;;;5012843;28;20488;-81
2023/08/31 13:09:52;;;;;;;3.53;2.73;;;19.30;99.90;;;;;;5013772;28;20468;-86
2023/08/31 13:18:32;;;;;;;1.93;1.70;;;19.30;99.90;;;;;;4994037;28;20504;-82
2023/08/31 13:21:03;;;;;;;1.63;1.53;;;19.30;99.90;;;;;;4998727;28;20492;-88
2023/08/31 13:23:42;;;;;;;1.57;1.47;;;19.30;99.90;;;;;;4997472;28;20527;-87
2023/08/31 13:26:17;;;;;;;2.50;1.70;;;19.20;99.90;;;;;;4981382;28;20821;-82
2023/08/31 13:28:44;;;;;;;1.87;1.73;;;19.30;99.90;;;;;;4992693;28;20488;-88
2023/08/31 13:38:16;;;;;;;1.53;1.43;;;19.40;99.90;;;;;;4876842;29;20476;-87
2023/08/31 13:44:00;;;;;;;2.53;1.57;;;19.50;99.90;;;;;;4923717;29;20479;-86